Time;durP1;ratioP1;P1;durP2;ratioP2;P2;SDS_P1;SDS_P2;PMS_P1;PMS_P2;Temp;Humidity;BMP_temperature;BMP_pressure;BME280_temperature;BME280_humidity;BME280_pressure;Samples;Min_cycle;Max_cycle;Signal;HPM_P1;HPM_P2
2021/12/08 00:01:19;;;;;;;34.30;21.38;;;154.00;2176.00;;;;;;5095605;28;20222;-67
2021/12/08 00:03:45;;;;;;;34.28;22.90;;;153.90;2176.00;;;;;;5095584;28;20103;-67
2021/12/08 00:06:12;;;;;;;33.42;22.40;;;153.90;2201.60;;;;;;5095611;28;20107;-67
2021/12/08 00:08:38;;;;;;;26.88;18.45;;;153.70;2176.00;;;;;;5095571;28;20470;-67
2021/12/08 00:13:50;;;;;;;28.33;20.52;;;153.90;2176.00;;;;;;5095305;28;20031;-66
2021/12/08 00:16:16;;;;;;;31.30;21.00;;;154.00;2124.80;;;;;;5095069;28;20044;-67
2021/12/08 00:18:49;;;;;;;29.60;20.13;;;154.00;2150.40;;;;;;5095318;28;20028;-68
2021/12/08 00:21:16;;;;;;;33.63;20.75;;;154.10;2124.80;;;;;;5095245;28;20423;-66
2021/12/08 00:23:43;;;;;;;33.05;20.75;;;154.10;2124.80;;;;;;5095135;28;20077;-67
2021/12/08 00:26:09;;;;;;;24.67;18.92;;;;;;;;;;5094374;28;20095;-68
2021/12/08 00:28:35;;;;;;;26.73;18.35;;;153.90;2124.80;;;;;;5094436;28;20074;-67
2021/12/08 00:31:03;;;;;;;31.55;19.55;;;154.00;2124.80;;;;;;5094816;28;20439;-67
2021/12/08 00:33:31;;;;;;;27.42;17.42;;;154.00;2124.80;;;;;;5095003;28;20055;-67
2021/12/08 00:35:59;;;;;;;24.02;17.77;;;154.00;2124.80;;;;;;5095187;28;20036;-67
2021/12/08 00:38:25;;;;;;;21.95;15.43;;;154.00;2124.80;;;;;;5094986;28;20024;-67
2021/12/08 00:40:53;;;;;;;24.25;16.40;;;153.90;2124.80;;;;;;5094815;28;20039;-67
2021/12/08 00:43:20;;;;;;;24.05;16.25;;;153.80;2124.80;;;;;;5094822;28;20354;-67
2021/12/08 00:45:47;;;;;;;22.50;15.55;;;128.90;2150.40;;;;;;5094742;28;20389;-70
2021/12/08 00:48:13;;;;;;;23.10;15.85;;;128.90;2150.40;;;;;;5094746;28;20043;-67
2021/12/08 00:50:40;;;;;;;22.55;16.30;;;153.70;2176.00;;;;;;5094705;28;20470;-67
2021/12/08 00:53:07;;;;;;;23.02;15.80;;;153.80;2150.40;;;;;;5094509;28;20016;-68
2021/12/08 00:55:34;;;;;;;22.98;16.02;;;153.60;2150.40;;;;;;5094524;28;20055;-67
2021/12/08 00:58:00;;;;;;;24.20;16.23;;;153.60;2176.00;;;;;;5094380;28;20046;-67
2021/12/08 01:00:31;;;;;;;26.65;16.02;;;153.80;2150.40;;;;;;5094259;28;20119;-70
2021/12/08 01:02:57;;;;;;;25.42;16.00;;;153.70;2124.80;;;;;;5094410;28;20059;-67
2021/12/08 01:05:25;;;;;;;31.63;18.23;;;;;;;;;;5094422;28;20134;-68
2021/12/08 01:07:52;;;;;;;25.95;16.35;;;;;;;;;;5094676;28;20028;-68
2021/12/08 01:10:24;;;;;;;21.40;14.10;;;128.50;2227.20;;;;;;5094242;28;20028;-68
2021/12/08 01:12:51;;;;;;;21.70;14.40;;;128.70;2201.60;;;;;;5094010;28;20394;-67
2021/12/08 01:15:17;;;;;;;23.75;15.23;;;128.70;2201.60;;;;;;5093898;28;20024;-67
2021/12/08 01:17:43;;;;;;;18.73;13.30;;;153.60;2176.00;;;;;;5094156;28;20024;-67
2021/12/08 01:20:13;;;;;;;21.98;14.73;;;153.60;2150.40;;;;;;5094116;28;20114;-67
2021/12/08 01:22:39;;;;;;;19.75;13.73;;;153.60;2150.40;;;;;;5093814;28;20062;-66
2021/12/08 01:25:05;;;;;;;19.52;13.82;;;153.70;2099.20;;;;;;5094057;28;20054;-66
2021/12/08 01:27:33;;;;;;;22.30;14.90;;;128.90;2176.00;;;;;;5093658;28;20024;-66
2021/12/08 01:29:59;;;;;;;42.08;27.75;;;153.60;2150.40;;;;;;5093648;28;20520;-69
2021/12/08 01:32:25;;;;;;;67.57;47.83;;;153.80;2124.80;;;;;;5093676;28;20024;-67
2021/12/08 01:34:52;;;;;;;26.95;23.10;;;154.00;2099.20;;;;;;5093841;28;20032;-67
2021/12/08 01:37:19;;;;;;;20.20;14.73;;;154.00;2099.20;;;;;;5093100;28;20389;-67
2021/12/08 01:39:45;;;;;;;24.08;18.13;;;153.90;2073.60;;;;;;5094024;28;20020;-66
2021/12/08 01:42:16;;;;;;;52.38;40.67;;;153.80;2124.80;;;;;;5093541;28;20391;-67
2021/12/08 01:47:27;;;;;;;22.38;17.23;;;153.80;2099.20;;;;;;5094046;28;20129;-67
2021/12/08 01:49:53;;;;;;;39.20;29.77;;;153.60;2099.20;;;;;;5093438;28;20024;-66
2021/12/08 01:52:19;;;;;;;45.40;36.08;;;128.90;2150.40;;;;;;5093679;28;20030;-67
2021/12/08 01:54:45;;;;;;;30.15;21.80;;;153.70;2124.80;;;;;;5093285;28;20024;-66
2021/12/08 01:57:11;;;;;;;51.28;33.70;;;;;;;;;;5093659;28;20032;-67
2021/12/08 01:59:37;;;;;;;24.35;15.30;;;153.60;2150.40;;;;;;5093473;28;20053;-68
2021/12/08 02:02:03;;;;;;;42.78;25.85;;;;;;;;;;5093179;28;20024;-67
2021/12/08 02:04:29;;;;;;;63.83;45.35;;;;;;;;;;5093336;28;20028;-68
2021/12/08 02:06:57;;;;;;;37.47;23.65;;;;;;;;;;5093256;28;20028;-67
2021/12/08 02:09:23;;;;;;;31.17;20.17;;;128.90;2124.80;;;;;;5093208;28;20089;-67
2021/12/08 02:11:53;;;;;;;61.95;39.15;;;128.90;2124.80;;;;;;5092959;28;20473;-67
2021/12/08 02:14:19;;;;;;;83.38;51.83;;;153.60;2124.80;;;;;;5093115;28;20080;-67
2021/12/08 02:16:46;;;;;;;61.72;40.15;;;153.70;2124.80;;;;;;5093010;28;20137;-67
2021/12/08 02:19:12;;;;;;;38.55;27.52;;;128.70;2176.00;;;;;;5092978;28;20016;-66
2021/12/08 02:21:40;;;;;;;49.05;35.03;;;153.60;2252.80;;;;;;5092962;28;20020;-67
2021/12/08 02:24:07;;;;;;;29.55;22.00;;;;;;;;;;5092904;28;20534;-67
2021/12/08 02:26:34;;;;;;;48.85;35.88;;;;;;;;;;5092966;28;20205;-67
2021/12/08 02:29:04;;;;;;;30.48;20.38;;;;;;;;;;5092763;28;20474;-65
2021/12/08 02:31:42;;;;;;;33.92;23.92;;;;;;;;;;5092736;28;20020;-65
2021/12/08 02:47:53;;;;;;;36.13;25.85;;;128.70;2150.40;;;;;;5092537;28;20081;-65
2021/12/08 02:50:30;;;;;;;36.35;27.88;;;128.80;2150.40;;;;;;5092336;28;20024;-65
2021/12/08 02:52:57;;;;;;;25.77;18.48;;;128.90;2124.80;;;;;;5092490;28;20501;-65
2021/12/08 02:55:24;;;;;;;23.00;17.10;;;128.80;2124.80;;;;;;5092481;28;20187;-64
2021/12/08 02:57:51;;;;;;;20.40;14.93;;;128.80;2124.80;;;;;;5074177;28;20020;-65
2021/12/08 03:00:23;;;;;;;23.38;15.65;;;;;;;;;;5092496;28;20025;-66
2021/12/08 03:02:49;;;;;;;22.38;15.55;;;;;;;;;;5092529;28;20103;-66
2021/12/08 03:05:15;;;;;;;20.90;14.07;;;;;;;;;;5092547;28;20020;-66
2021/12/08 03:07:41;;;;;;;19.70;14.23;;;;;;;;;;5092481;28;20596;-66
2021/12/08 03:10:09;;;;;;;21.77;14.25;;;;;;;;;;5092586;28;20060;-66
2021/12/08 03:12:35;;;;;;;19.15;13.38;;;;;;;;;;5092378;28;20028;-66
2021/12/08 03:15:02;;;;;;;26.23;17.58;;;;;;;;;;5092166;28;20103;-65
2021/12/08 03:17:28;;;;;;;28.88;18.33;;;;;;;;;;5092494;28;20501;-66
2021/12/08 03:19:54;;;;;;;25.25;19.33;;;;;;;;;;5074346;28;20032;-67
2021/12/08 03:22:20;;;;;;;21.20;14.63;;;;;;;;;;5092505;28;20016;-67
2021/12/08 03:24:48;;;;;;;31.15;20.13;;;;;;;;;;5092270;28;20027;-66
2021/12/08 03:27:19;;;;;;;26.35;16.85;;;;;;;;;;5092074;28;20024;-67
2021/12/08 03:32:18;;;;;;;22.00;16.27;;;;;;;;;;5092581;28;20594;-66
2021/12/08 03:34:51;;;;;;;31.85;17.25;;;;;;;;;;5092174;28;20027;-66
2021/12/08 03:37:18;;;;;;;28.80;15.70;;;;;;;;;;5092233;28;20478;-66
2021/12/08 03:39:45;;;;;;;26.85;18.13;;;;;;;;;;5092652;28;20382;-65
2021/12/08 03:42:11;;;;;;;34.38;21.45;;;;;;;;;;5092004;28;20016;-66
2021/12/08 03:44:38;;;;;;;35.40;19.90;;;;;;;;;;5092318;28;20028;-66
2021/12/08 03:47:12;;;;;;;35.20;20.17;;;;;;;;;;5092270;28;20108;-66
2021/12/08 03:49:39;;;;;;;25.20;13.93;;;;;;;;;;5073466;28;20474;-66
2021/12/08 03:52:05;;;;;;;19.65;13.23;;;;;;;;;;5091962;28;20066;-66
2021/12/08 03:54:31;;;;;;;51.88;27.40;;;;;;;;;;5091941;28;20028;-67
2021/12/08 03:56:58;;;;;;;38.25;23.85;;;;;;;;;;5091985;28;20032;-67
2021/12/08 03:59:24;;;;;;;40.05;24.55;;;;;;;;;;5091792;28;20032;-66
2021/12/08 04:01:50;;;;;;;37.45;19.73;;;;;;;;;;5094106;28;20478;-66
2021/12/08 04:04:16;;;;;;;29.48;17.10;;;;;;;;;;5095576;28;20035;-67
2021/12/08 04:06:49;;;;;;;27.63;18.85;;;;;;;;;;5095939;28;20020;-66
2021/12/08 04:09:24;;;;;;;31.77;17.05;;;;;;;;;;5095260;28;20044;-68
2021/12/08 04:11:50;;;;;;;28.23;17.48;;;;;;;;;;5095589;28;20386;-67
2021/12/08 04:14:18;;;;;;;23.42;17.17;;;;;;;;;;5077131;28;20031;-67
2021/12/08 04:16:48;;;;;;;31.13;19.20;;;;;;;;;;5095176;28;20036;-67
2021/12/08 04:19:14;;;;;;;31.00;19.95;;;;;;;;;;5095192;28;20068;-67
2021/12/08 04:21:41;;;;;;;35.45;21.33;;;;;;;;;;5095250;28;20024;-68
2021/12/08 04:24:08;;;;;;;33.22;21.48;;;;;;;;;;5095106;28;20586;-67
2021/12/08 04:26:37;;;;;;;39.10;26.15;;;;;;;;;;5095143;28;20409;-67
2021/12/08 04:29:05;;;;;;;54.08;38.47;;;;;;;;;;5094933;28;20127;-68
2021/12/08 04:31:33;;;;;;;37.90;24.83;;;;;;;;;;5095072;28;20028;-68
2021/12/08 04:34:02;;;;;;;37.13;23.45;;;;;;;;;;5095028;28;20024;-67
2021/12/08 04:36:36;;;;;;;43.65;31.88;;;;;;;;;;5094672;28;20040;-68
2021/12/08 04:39:08;;;;;;;40.30;27.83;;;;;;;;;;5095081;28;20031;-67
2021/12/08 04:41:39;;;;;;;42.83;28.38;;;;;;;;;;5094855;28;20024;-67
2021/12/08 04:44:17;;;;;;;;;;;;;;;;;;5095183;28;20118;-68
2021/12/08 04:52:50;;;;;;;41.92;28.13;;;;;;;;;;5032425;28;20022;-67
2021/12/08 05:04:37;;;;;;;80.63;50.10;;;;;;;;;;5052089;28;20087;-66
2021/12/08 05:06:47;;;;;;;61.85;39.58;;;;;;;;;;5039072;28;20515;-67
2021/12/08 05:09:16;;;;;;;66.75;44.42;;;;;;;;;;5051954;28;20530;-66
2021/12/08 05:11:48;;;;;;;74.15;47.10;;;;;;;;;;5051620;28;20120;-68
2021/12/08 05:14:24;;;;;;;75.50;49.63;;;;;;;;;;5051884;28;20076;-67
2021/12/08 05:16:53;;;;;;;80.18;53.58;;;;;;;;;;5051786;28;20032;-67
2021/12/08 05:19:21;;;;;;;113.72;72.15;;;;;;;;;;5051766;28;20562;-67
2021/12/08 05:21:55;;;;;;;102.90;66.15;;;;;;;;;;5051553;28;20387;-68
2021/12/08 05:24:23;;;;;;;87.55;56.10;;;;;;;;;;5051806;28;20029;-67
2021/12/08 05:26:59;;;;;;;64.13;44.75;;;;;;;;;;5085893;28;20102;-67
2021/12/08 05:29:33;;;;;;;66.35;45.40;;;;;;;;;;5075819;28;20048;-67
2021/12/08 05:32:01;;;;;;;59.90;39.45;;;;;;;;;;5093596;28;20387;-71
2021/12/08 05:34:27;;;;;;;58.75;40.60;;;;;;;;;;5093808;28;20016;-71
2021/12/08 05:36:54;;;;;;;67.97;43.28;;;;;;;;;;5093567;28;20036;-68
2021/12/08 05:39:21;;;;;;;65.97;41.78;;;;;;;;;;5093727;28;20466;-68
2021/12/08 05:41:53;;;;;;;77.70;53.70;;;;;;;;;;5093619;28;20071;-70
2021/12/08 05:44:20;;;;;;;106.88;70.20;;;;;;;;;;5093716;28;20386;-70
2021/12/08 05:46:47;;;;;;;97.53;71.60;;;;;;;;;;5093541;28;20020;-68
2021/12/08 05:49:15;;;;;;;108.38;71.57;;;;;;;;;;5093364;28;20030;-70
2021/12/08 05:51:42;;;;;;;105.43;70.80;;;;;;;;;;5093641;28;20024;-67
2021/12/08 05:54:16;;;;;;;118.53;77.97;;;;;;;;;;5093590;28;20107;-70
2021/12/08 05:56:43;;;;;;;138.93;99.22;;;;;;;;;;5093357;28;20035;-70
2021/12/08 05:59:10;;;;;;;158.02;110.95;;;;;;;;;;5093633;28;20505;-69
2021/12/08 06:02:15;;;;;;;153.07;106.55;;;;;;;;;;5093134;28;20027;-68
2021/12/08 06:04:42;;;;;;;144.02;97.68;;;;;;;;;;5030917;28;20045;-68
2021/12/08 06:07:08;;;;;;;152.52;96.32;;;;;;;;;;5030959;28;20033;-68
2021/12/08 06:09:35;;;;;;;143.68;92.75;;;;;;;;;;5030900;28;20087;-70
2021/12/08 06:12:01;;;;;;;166.63;100.20;;;;;;;;;;5030982;28;20025;-68
2021/12/08 06:14:32;;;;;;;96.47;61.70;;;;;;;;;;5031106;28;20029;-69
2021/12/08 06:17:00;;;;;;;75.55;50.42;;;;;;;;;;5030793;28;20633;-69
2021/12/08 06:19:26;;;;;;;72.50;51.30;;;;;;;;;;5030528;28;20026;-71
2021/12/08 06:21:52;;;;;;;85.00;59.70;;;;;;;;;;5030537;28;20034;-71
2021/12/08 06:24:19;;;;;;;99.88;66.55;;;;;;;;;;5030164;28;20407;-67
2021/12/08 06:26:45;;;;;;;107.13;72.15;;;;;;;;;;5030732;28;20045;-68
2021/12/08 06:29:12;;;;;;;121.28;86.65;;;;;;;;;;5030410;28;20614;-68
2021/12/08 06:31:40;;;;;;;139.38;93.80;;;;;;;;;;5030634;28;20037;-68
2021/12/08 06:34:06;;;;;;;184.63;113.95;;;;;;;;;;5030430;28;20040;-68
2021/12/08 06:36:59;;;;;;;176.75;115.80;;;;;;;;;;5090788;28;20052;-68
2021/12/08 06:39:31;;;;;;;178.48;120.32;;;;;;;;;;5089028;28;20040;-68
2021/12/08 06:41:57;;;;;;;;;;;;;;;;;;5093026;28;20023;-68
2021/12/08 06:44:28;;;;;;;183.43;118.45;;;;;;;;;;5092862;28;19904;-67
2021/12/08 06:46:55;;;;;;;193.00;125.25;;;;;;;;;;5092630;28;20021;-69
2021/12/08 06:49:22;;;;;;;181.73;116.40;;;;;;;;;;5074549;28;20028;-68
2021/12/08 06:51:51;;;;;;;185.85;118.95;;;;;;;;;;5092817;28;20035;-68
2021/12/08 06:54:20;;;;;;;179.98;114.55;;;;;;;;;;5092645;28;20028;-67
2021/12/08 06:56:53;;;;;;;173.02;114.00;;;;;;;;;;5092677;28;20489;-71
2021/12/08 06:59:22;;;;;;;175.85;118.45;;;;;;;;;;5092652;28;20026;-68
2021/12/08 07:02:09;;;;;;;154.45;108.10;;;;;;;;;;5092430;28;20031;-67
2021/12/08 07:05:10;;;;;;;164.60;112.10;;;;;;;;;;5092448;28;20382;-68
2021/12/08 07:07:38;;;;;;;184.45;122.72;;;;;;;;;;5092568;28;20443;-68
2021/12/08 07:10:07;;;;;;;163.73;109.90;;;;;;;;;;5092437;28;20466;-68
2021/12/08 07:12:41;;;;;;;182.20;121.50;;;;;;;;;;5092598;28;20025;-68
2021/12/08 07:15:10;;;;;;;187.40;129.30;;;;;;;;;;5092622;28;20469;-67
2021/12/08 07:17:37;;;;;;;197.07;138.45;;;;;;;;;;5092387;28;20111;-67
2021/12/08 07:20:18;;;;;;;268.48;169.77;;;;;;;;;;5092866;28;20020;-67
2021/12/08 07:22:46;;;;;;;235.20;155.20;;;;;;;;;;5074131;28;20025;-67
2021/12/08 07:25:12;;;;;;;201.25;140.68;;;;;;;;;;5092269;28;20046;-67
2021/12/08 07:27:39;;;;;;;215.95;147.80;;;;;;;;;;5092181;28;20017;-68
2021/12/08 07:30:16;;;;;;;219.35;158.95;;;154.10;2252.80;;;;;;5092121;28;20154;-67
2021/12/08 07:32:43;;;;;;;223.30;153.68;;;154.30;2252.80;;;;;;5092254;28;20016;-67
2021/12/08 07:35:21;;;;;;;226.60;157.95;;;154.40;2227.20;;;;;;5093327;28;20020;-67
2021/12/08 07:37:47;;;;;;;230.88;158.52;;;154.50;2176.00;;;;;;5096072;28;20508;-67
2021/12/08 07:40:28;;;;;;;228.30;159.68;;;179.20;2150.40;;;;;;5096323;28;20016;-68
2021/12/08 07:43:00;;;;;;;222.67;156.63;;;179.20;2124.80;;;;;;5096025;28;20481;-68
2021/12/08 07:45:43;;;;;;;227.98;156.70;;;179.30;2099.20;;;;;;5095960;28;20257;-68
2021/12/08 07:48:12;;;;;;;183.75;132.20;;;;;;;;;;5095677;28;20028;-67
2021/12/08 07:50:46;;;;;;;233.13;165.18;;;;;;;;;;5095762;28;20024;-68
2021/12/08 07:53:16;;;;;;;159.95;109.15;;;;;;;;;;5096007;28;20382;-67
2021/12/08 07:55:44;;;;;;;167.98;115.93;;;;;;;;;;5095514;28;20036;-67
2021/12/08 07:58:11;;;;;;;177.10;121.47;;;;;;;;;;5095857;28;20534;-68
2021/12/08 08:00:58;;;;;;;130.40;89.80;;;;;;;;;;5095864;28;20086;-68
2021/12/08 08:03:25;;;;;;;141.82;96.07;;;;;;;;;;5095147;28;20478;-68
2021/12/08 08:05:52;;;;;;;134.07;88.65;;;204.80;1894.40;;;;;;5095594;28;20034;-68
2021/12/08 08:08:20;;;;;;;152.18;104.80;;;;;;;;;;5095402;28;20031;-69
2021/12/08 08:10:51;;;;;;;194.52;136.48;;;;;;;;;;5095303;28;20024;-71
2021/12/08 08:13:18;;;;;;;224.63;158.03;;;;;;;;;;5095350;28;20073;-68
2021/12/08 08:15:48;;;;;;;195.85;149.13;;;205.40;1817.60;;;;;;5095447;28;20065;-67
2021/12/08 08:18:18;;;;;;;210.15;155.80;;;205.30;2048.00;;;;;;5095131;28;20023;-67
2021/12/08 08:20:49;;;;;;;202.20;141.18;;;205.40;2201.60;;;;;;5095201;28;20479;-67
2021/12/08 08:23:16;;;;;;;202.93;144.85;;;205.20;2252.80;;;;;;5076493;28;20032;-67
2021/12/08 08:25:44;;;;;;;466.98;322.77;;;;;;;;;;5095054;28;20078;-67
2021/12/08 08:28:11;;;;;;;198.88;146.85;;;;;;;;;;5094888;28;20031;-67
2021/12/08 08:30:39;;;;;;;240.00;167.48;;;;;;;;;;5094851;28;20421;-68
2021/12/08 08:33:05;;;;;;;205.32;137.27;;;;;;;;;;5094900;28;20394;-67
2021/12/08 08:35:43;;;;;;;195.85;136.45;;;;;;;;;;5094672;28;20118;-68
2021/12/08 08:38:11;;;;;;;184.30;135.20;;;;;;;;;;5094736;28;20027;-67
2021/12/08 08:40:43;;;;;;;197.10;135.07;;;230.40;1766.40;;;;;;5094823;28;20078;-67
2021/12/08 08:43:09;;;;;;;155.88;110.18;;;205.70;1945.60;;;;;;5094889;28;20020;-67
2021/12/08 08:45:52;;;;;;;149.93;109.78;;;230.40;1740.80;;;;;;5077096;28;20448;-67
2021/12/08 08:48:28;;;;;;;149.63;105.47;;;205.70;1792.00;;;;;;5093720;28;20500;-68
2021/12/08 08:51:02;;;;;;;166.07;118.85;;;;;;;;;;5094705;28;20028;-67
2021/12/08 08:53:31;;;;;;;163.93;118.90;;;;;;;;;;5094646;28;20048;-68
2021/12/08 08:56:08;;;;;;;165.38;119.00;;;;;;;;;;5094390;28;20032;-68
2021/12/08 08:58:36;;;;;;;156.32;117.40;;;;;;;;;;5094614;28;20039;-68
2021/12/08 09:01:13;;;;;;;143.07;101.43;;;;;;;;;;5094472;28;20032;-67
2021/12/08 09:03:41;;;;;;;214.63;148.10;;;;;;;;;;5094346;28;20031;-67
2021/12/08 09:06:10;;;;;;;114.03;83.35;;;;;;;;;;5094361;28;20031;-67
2021/12/08 09:08:37;;;;;;;112.30;85.63;;;;;;;;;;5094329;28;20020;-68
2021/12/08 09:11:06;;;;;;;113.25;84.45;;;;;;;;;;5094237;28;20055;-67
2021/12/08 09:13:50;;;;;;;106.07;81.13;;;435.90;998.40;;;;;;5094082;28;20020;-67
2021/12/08 09:16:19;;;;;;;106.82;77.68;;;;;;;;;;5094028;28;20031;-67
2021/12/08 09:18:53;;;;;;;100.85;82.15;;;;;;;;;;5093902;28;20377;-67
2021/12/08 09:21:25;;;;;;;135.00;97.65;;;537.90;793.60;;;;;;5093917;28;20436;-67
2021/12/08 09:23:50;;;;;;;90.80;68.80;;;563.20;793.60;;;;;;5094031;28;20367;-69
2021/12/08 09:26:18;;;;;;;59.03;46.40;;;;;;;;;;5093944;28;20024;-69
2021/12/08 09:29:18;;;;;;;57.88;47.20;;;589.30;691.20;;;;;;5093833;28;20097;-67
2021/12/08 09:31:46;;;;;;;35.72;29.90;;;589.40;691.20;;;;;;5093843;28;20129;-69
2021/12/08 09:34:20;;;;;;;40.58;28.17;;;;;;;;;;5093817;28;20494;-67
2021/12/08 09:36:49;;;;;;;40.03;32.35;;;;;;;;;;5093693;28;20089;-68
2021/12/08 09:39:21;;;;;;;41.20;33.22;;;537.60;768.00;;;;;;5093763;28;20020;-69
2021/12/08 09:42:03;;;;;;;48.78;41.08;;;563.30;768.00;;;;;;5093592;28;20056;-69
2021/12/08 09:44:33;;;;;;;59.15;40.28;;;;;;;;;;5093339;28;20050;-68
2021/12/08 09:46:59;;;;;;;50.58;36.58;;;614.80;640.00;;;;;;5093607;28;20577;-67
2021/12/08 09:49:26;;;;;;;52.65;30.25;;;;;;;;;;5093461;28;20056;-68
2021/12/08 09:51:54;;;;;;;36.78;29.05;;;615.30;614.40;;;;;;5093722;28;20471;-68
2021/12/08 09:54:20;;;;;;;48.47;39.22;;;615.20;640.00;;;;;;5093551;28;20359;-67
2021/12/08 09:56:49;;;;;;;49.40;40.45;;;;;;;;;;5093531;28;20032;-68
2021/12/08 09:59:15;;;;;;;57.95;46.45;;;;;;;;;;5092195;28;20024;-67
2021/12/08 10:01:42;;;;;;;44.85;37.45;;;;;;;;;;5093354;28;20032;-68
2021/12/08 10:04:10;;;;;;;40.17;29.75;;;;;;;;;;5092882;28;20114;-68
2021/12/08 10:06:37;;;;;;;50.10;32.83;;;;;;;;;;5093201;28;20471;-68
2021/12/08 10:09:03;;;;;;;26.10;22.50;;;;;;;;;;5093325;28;20038;-68
2021/12/08 10:11:31;;;;;;;48.97;33.80;;;;;;;;;;5093201;28;20525;-68
2021/12/08 10:13:58;;;;;;;40.03;31.73;;;;;;;;;;5093232;28;20020;-68
2021/12/08 10:16:24;;;;;;;42.22;33.03;;;;;;;;;;5093363;28;20039;-68
2021/12/08 10:18:51;;;;;;;41.72;28.40;;;;;;;;;;5092805;28;20028;-69
2021/12/08 10:21:17;;;;;;;38.80;28.92;;;640.70;614.40;;;;;;5093108;28;20027;-66
2021/12/08 10:23:45;;;;;;;28.90;25.08;;;640.10;640.00;;;;;;5092886;28;20020;-68
2021/12/08 10:26:13;;;;;;;33.33;27.13;;;;;;;;;;5092755;28;20032;-68
2021/12/08 10:28:43;;;;;;;22.92;19.85;;;640.30;640.00;;;;;;5092796;28;20042;-67
2021/12/08 10:31:15;;;;;;;26.35;20.90;;;;;;;;;;5092885;28;20038;-67
2021/12/08 10:34:10;;;;;;;27.58;20.33;;;;;;;;;;5093190;28;20024;-68
2021/12/08 10:39:11;;;;;;;38.47;23.02;;;;;;;;;;5092743;28;20135;-67
2021/12/08 10:42:01;;;;;;;24.80;19.20;;;666.00;640.00;;;;;;5092755;28;20039;-68
2021/12/08 10:44:37;;;;;;;26.10;19.77;;;;;;;;;;5092663;28;20027;-68
2021/12/08 10:47:04;;;;;;;21.80;15.57;;;;;;;;;;5092473;28;20016;-68
2021/12/08 10:54:45;;;;;;;23.70;17.15;;;615.10;614.40;;;;;;5092555;28;20050;-67
2021/12/08 10:57:24;;;;;;;31.40;19.13;;;;;;;;;;5092383;28;20032;-72
2021/12/08 10:59:58;;;;;;;14.30;12.18;;;;;;;;;;5092819;28;20020;-67
2021/12/08 11:02:43;;;;;;;19.38;11.82;;;;;;;;;;5092609;28;20028;-68
2021/12/08 11:05:24;;;;;;;27.38;18.40;;;615.20;665.60;;;;;;5074195;28;20028;-68
2021/12/08 11:08:11;;;;;;;45.80;20.60;;;614.80;665.60;;;;;;5092667;28;20020;-68
2021/12/08 11:10:46;;;;;;;18.02;12.70;;;;;;;;;;5094879;28;20028;-68
2021/12/08 11:13:14;;;;;;;19.60;12.93;;;;;;;;;;5096641;28;20047;-67
2021/12/08 11:15:40;;;;;;;32.78;19.65;;;;;;;;;;5096207;28;20028;-68
2021/12/08 11:18:22;;;;;;;21.10;14.68;;;563.50;742.40;;;;;;5096604;28;20104;-68
2021/12/08 11:20:58;;;;;;;32.53;27.90;;;563.50;742.40;;;;;;5096610;28;20398;-67
2021/12/08 11:23:39;;;;;;;16.67;13.05;;;563.40;768.00;;;;;;5096977;28;20066;-67
2021/12/08 11:26:10;;;;;;;31.30;20.07;;;;;;;;;;5096200;28;20032;-67
2021/12/08 11:28:36;;;;;;;15.70;12.40;;;;;;;;;;5096097;28;20284;-67
2021/12/08 11:31:09;;;;;;;22.98;19.00;;;;;;;;;;5096524;28;20393;-67
2021/12/08 11:33:38;;;;;;;31.05;15.63;;;;;;;;;;5096224;28;20367;-67
2021/12/08 11:36:09;;;;;;;14.90;9.20;;;;;;;;;;5095944;28;20036;-67
2021/12/08 11:38:35;;;;;;;23.40;13.43;;;;;;;;;;5095913;28;20496;-67
2021/12/08 11:41:02;;;;;;;19.27;13.25;;;;;;;;;;5096114;28;20565;-67
2021/12/08 11:43:29;;;;;;;19.63;15.60;;;;;;;;;;5095935;28;20040;-67
2021/12/08 11:46:10;;;;;;;23.65;16.60;;;;;;;;;;5095670;28;20035;-67
2021/12/08 11:48:48;;;;;;;20.80;14.53;;;512.20;768.00;;;;;;5095680;28;20394;-67
2021/12/08 11:51:15;;;;;;;32.17;23.58;;;512.60;768.00;;;;;;5096053;28;20466;-68
2021/12/08 11:53:41;;;;;;;18.00;14.20;;;512.40;768.00;;;;;;5095700;28;20020;-68
2021/12/08 11:56:18;;;;;;;15.32;11.32;;;487.20;793.60;;;;;;5095496;28;20125;-67
2021/12/08 11:58:55;;;;;;;13.40;10.50;;;487.20;793.60;;;;;;5095337;28;20036;-67
2021/12/08 12:01:21;;;;;;;21.55;12.55;;;487.10;819.20;;;;;;5095617;28;20032;-67
2021/12/08 12:03:47;;;;;;;21.95;14.02;;;487.20;793.60;;;;;;5095195;28;20020;-68
2021/12/08 12:06:13;;;;;;;16.05;12.40;;;487.10;819.20;;;;;;5095268;28;20587;-67
2021/12/08 12:08:39;;;;;;;17.50;13.98;;;;;;;;;;5095523;28;20024;-67
2021/12/08 12:11:05;;;;;;;19.25;14.45;;;486.40;1075.20;;;;;;5095112;28;20481;-68
2021/12/08 12:13:31;;;;;;;31.35;26.77;;;461.70;896.00;;;;;;5095265;28;20016;-67
2021/12/08 12:15:57;;;;;;;15.10;11.80;;;461.50;870.40;;;;;;5095128;28;20039;-67
2021/12/08 12:18:24;;;;;;;17.77;12.93;;;;;;;;;;5094873;28;20390;-68
2021/12/08 12:21:13;;;;;;;19.27;13.38;;;461.50;1075.20;;;;;;5076299;28;20036;-67
2021/12/08 12:23:51;;;;;;;32.90;22.55;;;461.50;870.40;;;;;;5094395;28;20016;-67
2021/12/08 12:26:23;;;;;;;27.88;19.33;;;;;;;;;;5076666;28;20508;-68
2021/12/08 12:28:52;;;;;;;28.75;17.67;;;;;;;;;;5094773;28;20596;-67
2021/12/08 12:31:31;;;;;;;26.33;18.35;;;;;;;;;;5094600;28;20028;-67
2021/12/08 12:33:57;;;;;;;34.33;29.48;;;;;;;;;;5094508;28;20077;-67
2021/12/08 12:36:27;;;;;;;24.45;19.90;;;461.20;921.60;;;;;;5094681;28;20036;-69
2021/12/08 12:39:09;;;;;;;12.53;11.10;;;461.40;896.00;;;;;;5094725;28;20042;-68
2021/12/08 12:41:35;;;;;;;15.50;10.57;;;461.30;921.60;;;;;;5094549;28;20022;-68
2021/12/08 12:44:24;;;;;;;20.83;13.60;;;461.10;921.60;;;;;;5094366;28;20032;-68
2021/12/08 12:50:28;;;;;;;16.77;10.65;;;461.00;921.60;;;;;;5031725;28;20439;-68
2021/12/08 12:52:59;;;;;;;12.75;9.68;;;460.80;947.20;;;;;;5015117;28;20033;-67
2021/12/08 12:55:30;;;;;;;21.98;12.13;;;436.00;921.60;;;;;;5032042;28;20083;-67
2021/12/08 12:58:02;;;;;;;;;;;460.80;1100.80;;;;;;5032336;28;20069;-67
2021/12/08 13:00:40;;;;;;;21.25;15.07;;;460.90;947.20;;;;;;5031868;28;19913;-69
2021/12/08 13:03:06;;;;;;;21.58;12.75;;;;;;;;;;5031908;28;20038;-69
2021/12/08 13:05:52;;;;;;;22.00;15.00;;;;;;;;;;5032013;28;20137;-69
2021/12/08 13:08:34;;;;;;;15.85;12.68;;;436.10;921.60;;;;;;5031809;28;20056;-68
2021/12/08 13:11:10;;;;;;;25.38;16.08;;;436.00;896.00;;;;;;5031566;28;20034;-69
2021/12/08 13:13:50;;;;;;;27.50;22.77;;;;;;;;;;5031943;28;20033;-68
2021/12/08 13:16:25;;;;;;;16.42;12.88;;;;;;;;;;5015139;28;20041;-69
2021/12/08 13:18:59;;;;;;;27.90;21.50;;;;;;;;;;5031596;28;20037;-67
2021/12/08 13:21:38;;;;;;;23.00;17.42;;;;;;;;;;5031547;28;20060;-69
2021/12/08 13:24:04;;;;;;;27.38;22.23;;;435.30;972.80;;;;;;5031610;28;20044;-67
2021/12/08 13:26:46;;;;;;;25.17;18.75;;;435.20;972.80;;;;;;5065610;28;20038;-68
2021/12/08 13:29:20;;;;;;;;;;;435.20;972.80;;;;;;5093938;28;20040;-67
2021/12/08 13:31:59;;;;;;;24.98;19.83;;;410.30;998.40;;;;;;5093718;28;19983;-67
2021/12/08 13:34:32;;;;;;;20.65;12.13;;;;;;;;;;5093672;28;20580;-68
2021/12/08 13:37:30;;;;;;;31.08;21.15;;;410.00;998.40;;;;;;5093556;28;20047;-67
2021/12/08 13:40:08;;;;;;;24.65;16.40;;;409.70;1049.60;;;;;;5093570;28;20505;-68
2021/12/08 13:42:47;;;;;;;37.03;22.02;;;;;;;;;;5093287;28;20028;-68
2021/12/08 13:45:14;;;;;;;27.88;18.50;;;384.90;1024.00;;;;;;5075032;28;20078;-68
2021/12/08 13:47:41;;;;;;;40.42;29.80;;;;;;;;;;5093301;28;20060;-67
2021/12/08 13:50:24;;;;;;;83.07;51.35;;;;;;;;;;5093671;28;20099;-67
2021/12/08 13:52:56;;;;;;;32.63;23.25;;;;;;;;;;5093222;28;20082;-70
2021/12/08 13:55:25;;;;;;;78.95;55.97;;;;;;;;;;5093181;28;20114;-68
2021/12/08 13:57:56;;;;;;;28.35;19.85;;;;;;;;;;5093228;28;20024;-67
2021/12/08 14:00:27;;;;;;;26.77;18.33;;;;;;;;;;5092913;28;20020;-67
2021/12/08 14:02:55;;;;;;;27.67;16.75;;;;;;;;;;5093104;28;20024;-67
2021/12/08 14:05:27;;;;;;;22.88;18.48;;;;;;;;;;5092845;28;20044;-68
2021/12/08 14:07:54;;;;;;;21.75;16.17;;;;;;;;;;5093356;28;20032;-67
2021/12/08 14:10:30;;;;;;;22.73;17.60;;;333.40;1203.20;;;;;;5092910;28;20095;-66
2021/12/08 14:13:00;;;;;;;20.98;16.40;;;;;;;;;;5093372;28;20454;-67
2021/12/08 14:15:26;;;;;;;24.73;15.98;;;333.30;1228.80;;;;;;5092612;28;20031;-67
2021/12/08 14:17:52;;;;;;;19.33;15.23;;;333.20;1228.80;;;;;;5092849;28;20020;-67
2021/12/08 14:20:27;;;;;;;34.53;23.95;;;333.10;1228.80;;;;;;5092889;28;20020;-67
2021/12/08 14:22:54;;;;;;;63.20;46.33;;;;;;;;;;5092705;28;20027;-67